Decoded Metar for RPMZ (ZAMBOANGA in PHILIPPINES) (IATA:ZAM) | Meteo·Mobile Aviation Weather
aviador You're here:

RPMZ Decoded Metar

ZAMBOANGA in PHILIPPINES
Report Time2019-03-21 18:00:00
UTC Time2019-03-22 15:07:39
Flight Rules Old
WindN/A
VisibilityN/A
Phenomena:N/A
Clouds:Few 017 Hf
Expected CloudBase > 800 ft AGL from Temp-Dew spread
CeilingNone
Temp24°C (ISA +9)
Dew Point22°C (89% RH)
QNH1012 hPa
Density Alt1,450 ft
Elevation20 ft
Report Wrong Elevation
Raw Report
METAR RPMZ 211800Z VRB001KT 9999 FEW017 24/22 Q1012 RMK A2988=

Extra information for RPMZ:More info

Metar Taf Metar & Taf Last 4 Metars F.Rules Stats Wind Profile Meteogram Temp Stats Airport Information Weather charts Add Link Nearby VenuesMetar ALERT Operation Metar Decoded Social comments